sensor_id;sensor_type;location;lat;lon;timestamp;P1;durP1;ratioP1;P2;durP2;ratioP2
4819;SDS011;2424;49.696;6.630;2024-02-26T00:03:14;0.30;;;0.23;;
4819;SDS011;2424;49.696;6.630;2024-02-26T00:08:37;0.47;;;0.47;;
4819;SDS011;2424;49.696;6.630;2024-02-26T00:13:59;0.20;;;0.20;;
4819;SDS011;2424;49.696;6.630;2024-02-26T00:19:21;0.50;;;0.50;;
4819;SDS011;2424;49.696;6.630;2024-02-26T00:24:44;0.40;;;0.40;;
4819;SDS011;2424;49.696;6.630;2024-02-26T00:30:07;0.30;;;0.20;;
4819;SDS011;2424;49.696;6.630;2024-02-26T00:35:29;0.43;;;0.43;;
4819;SDS011;2424;49.696;6.630;2024-02-26T00:40:52;0.27;;;0.23;;
4819;SDS011;2424;49.696;6.630;2024-02-26T00:46:14;0.30;;;0.30;;
4819;SDS011;2424;49.696;6.630;2024-02-26T00:51:36;0.20;;;0.20;;
4819;SDS011;2424;49.696;6.630;2024-02-26T00:57:00;1.43;;;0.20;;
4819;SDS011;2424;49.696;6.630;2024-02-26T01:02:21;0.30;;;0.30;;
4819;SDS011;2424;49.696;6.630;2024-02-26T01:07:43;0.20;;;0.20;;
4819;SDS011;2424;49.696;6.630;2024-02-26T01:13:07;0.20;;;0.20;;
4819;SDS011;2424;49.696;6.630;2024-02-26T01:18:29;0.20;;;0.20;;
4819;SDS011;2424;49.696;6.630;2024-02-26T01:23:50;0.53;;;0.20;;
4819;SDS011;2424;49.696;6.630;2024-02-26T01:29:14;0.40;;;0.40;;
4819;SDS011;2424;49.696;6.630;2024-02-26T01:34:36;0.20;;;0.20;;
4819;SDS011;2424;49.696;6.630;2024-02-26T01:39:58;0.20;;;0.20;;
4819;SDS011;2424;49.696;6.630;2024-02-26T01:45:21;0.20;;;0.10;;
4819;SDS011;2424;49.696;6.630;2024-02-26T01:50:44;0.20;;;0.20;;
4819;SDS011;2424;49.696;6.630;2024-02-26T01:56:06;0.40;;;0.30;;
4819;SDS011;2424;49.696;6.630;2024-02-26T02:01:31;0.20;;;0.20;;
4819;SDS011;2424;49.696;6.630;2024-02-26T02:06:54;0.20;;;0.20;;
4819;SDS011;2424;49.696;6.630;2024-02-26T02:12:18;0.30;;;0.30;;
4819;SDS011;2424;49.696;6.630;2024-02-26T02:17:42;0.20;;;0.20;;
4819;SDS011;2424;49.696;6.630;2024-02-26T02:23:05;0.20;;;0.20;;
4819;SDS011;2424;49.696;6.630;2024-02-26T02:28:27;0.20;;;0.20;;
4819;SDS011;2424;49.696;6.630;2024-02-26T02:33:49;0.23;;;0.23;;
4819;SDS011;2424;49.696;6.630;2024-02-26T02:39:13;0.20;;;0.20;;
4819;SDS011;2424;49.696;6.630;2024-02-26T02:44:36;0.20;;;0.20;;
4819;SDS011;2424;49.696;6.630;2024-02-26T02:49:58;0.20;;;0.20;;
4819;SDS011;2424;49.696;6.630;2024-02-26T02:55:21;0.20;;;0.10;;
4819;SDS011;2424;49.696;6.630;2024-02-26T03:00:43;0.20;;;0.20;;
4819;SDS011;2424;49.696;6.630;2024-02-26T03:06:05;0.20;;;0.20;;
4819;SDS011;2424;49.696;6.630;2024-02-26T03:11:29;0.20;;;0.20;;
4819;SDS011;2424;49.696;6.630;2024-02-26T03:16:52;0.30;;;0.20;;
4819;SDS011;2424;49.696;6.630;2024-02-26T03:22:15;0.20;;;0.10;;
4819;SDS011;2424;49.696;6.630;2024-02-26T03:27:38;0.20;;;0.20;;
4819;SDS011;2424;49.696;6.630;2024-02-26T03:33:00;0.30;;;0.20;;
4819;SDS011;2424;49.696;6.630;2024-02-26T03:38:22;0.30;;;0.30;;
4819;SDS011;2424;49.696;6.630;2024-02-26T03:43:46;0.20;;;0.10;;
4819;SDS011;2424;49.696;6.630;2024-02-26T03:49:07;0.20;;;0.10;;
4819;SDS011;2424;49.696;6.630;2024-02-26T03:54:29;0.20;;;0.10;;
4819;SDS011;2424;49.696;6.630;2024-02-26T03:59:53;0.20;;;0.10;;
4819;SDS011;2424;49.696;6.630;2024-02-26T04:05:15;0.20;;;0.20;;
4819;SDS011;2424;49.696;6.630;2024-02-26T04:10:36;0.30;;;0.20;;
4819;SDS011;2424;49.696;6.630;2024-02-26T04:16:00;0.20;;;0.20;;
4819;SDS011;2424;49.696;6.630;2024-02-26T04:21:22;0.20;;;0.10;;
4819;SDS011;2424;49.696;6.630;2024-02-26T04:26:44;0.30;;;0.20;;
4819;SDS011;2424;49.696;6.630;2024-02-26T04:32:08;0.30;;;0.30;;
4819;SDS011;2424;49.696;6.630;2024-02-26T04:37:30;0.20;;;0.10;;
4819;SDS011;2424;49.696;6.630;2024-02-26T04:42:52;0.20;;;0.10;;
4819;SDS011;2424;49.696;6.630;2024-02-26T04:48:15;0.20;;;0.20;;
4819;SDS011;2424;49.696;6.630;2024-02-26T04:53:37;0.20;;;0.20;;
4819;SDS011;2424;49.696;6.630;2024-02-26T04:58:59;0.20;;;0.20;;
4819;SDS011;2424;49.696;6.630;2024-02-26T05:04:22;0.20;;;0.10;;
4819;SDS011;2424;49.696;6.630;2024-02-26T05:09:44;0.30;;;0.20;;
4819;SDS011;2424;49.696;6.630;2024-02-26T05:15:06;0.20;;;0.20;;
4819;SDS011;2424;49.696;6.630;2024-02-26T05:20:30;0.20;;;0.20;;
4819;SDS011;2424;49.696;6.630;2024-02-26T05:25:55;0.83;;;0.70;;
4819;SDS011;2424;49.696;6.630;2024-02-26T05:31:17;0.50;;;0.50;;
4819;SDS011;2424;49.696;6.630;2024-02-26T05:36:40;0.30;;;0.30;;
4819;SDS011;2424;49.696;6.630;2024-02-26T05:42:02;0.20;;;0.20;;
4819;SDS011;2424;49.696;6.630;2024-02-26T05:47:25;0.20;;;0.20;;
4819;SDS011;2424;49.696;6.630;2024-02-26T05:52:48;0.20;;;0.20;;
4819;SDS011;2424;49.696;6.630;2024-02-26T05:58:10;0.30;;;0.30;;
4819;SDS011;2424;49.696;6.630;2024-02-26T06:03:32;0.30;;;0.20;;
4819;SDS011;2424;49.696;6.630;2024-02-26T06:08:55;0.20;;;0.20;;
4819;SDS011;2424;49.696;6.630;2024-02-26T06:14:17;0.43;;;0.20;;
4819;SDS011;2424;49.696;6.630;2024-02-26T06:19:40;0.30;;;0.30;;
4819;SDS011;2424;49.696;6.630;2024-02-26T06:25:03;0.20;;;0.20;;
4819;SDS011;2424;49.696;6.630;2024-02-26T06:30:26;0.47;;;0.20;;
4819;SDS011;2424;49.696;6.630;2024-02-26T06:35:47;0.20;;;0.20;;
4819;SDS011;2424;49.696;6.630;2024-02-26T06:41:11;0.50;;;0.50;;
4819;SDS011;2424;49.696;6.630;2024-02-26T06:46:33;0.20;;;0.20;;
4819;SDS011;2424;49.696;6.630;2024-02-26T06:51:54;0.40;;;0.37;;
4819;SDS011;2424;49.696;6.630;2024-02-26T06:57:18;0.20;;;0.20;;
4819;SDS011;2424;49.696;6.630;2024-02-26T07:02:40;0.20;;;0.20;;
4819;SDS011;2424;49.696;6.630;2024-02-26T07:08:02;0.20;;;0.20;;
4819;SDS011;2424;49.696;6.630;2024-02-26T07:13:25;0.20;;;0.20;;
4819;SDS011;2424;49.696;6.630;2024-02-26T07:18:47;0.20;;;0.20;;
4819;SDS011;2424;49.696;6.630;2024-02-26T07:24:09;0.23;;;0.23;;
4819;SDS011;2424;49.696;6.630;2024-02-26T07:29:33;0.30;;;0.30;;
4819;SDS011;2424;49.696;6.630;2024-02-26T07:34:54;0.20;;;0.20;;
4819;SDS011;2424;49.696;6.630;2024-02-26T07:40:17;0.30;;;0.30;;
4819;SDS011;2424;49.696;6.630;2024-02-26T07:45:40;0.53;;;0.53;;
4819;SDS011;2424;49.696;6.630;2024-02-26T07:51:04;1.13;;;0.20;;
4819;SDS011;2424;49.696;6.630;2024-02-26T07:56:26;0.20;;;0.20;;
4819;SDS011;2424;49.696;6.630;2024-02-26T08:01:50;0.37;;;0.37;;
4819;SDS011;2424;49.696;6.630;2024-02-26T08:07:12;0.30;;;0.27;;
4819;SDS011;2424;49.696;6.630;2024-02-26T08:12:34;0.20;;;0.20;;
4819;SDS011;2424;49.696;6.630;2024-02-26T08:17:57;0.30;;;0.30;;
4819;SDS011;2424;49.696;6.630;2024-02-26T08:23:22;0.43;;;0.20;;
4819;SDS011;2424;49.696;6.630;2024-02-26T08:28:45;0.30;;;0.30;;
4819;SDS011;2424;49.696;6.630;2024-02-26T08:34:09;0.47;;;0.47;;
4819;SDS011;2424;49.696;6.630;2024-02-26T08:39:31;0.30;;;0.30;;
4819;SDS011;2424;49.696;6.630;2024-02-26T08:44:52;0.20;;;0.20;;
4819;SDS011;2424;49.696;6.630;2024-02-26T08:50:16;0.20;;;0.20;;
4819;SDS011;2424;49.696;6.630;2024-02-26T08:55:38;0.30;;;0.30;;
4819;SDS011;2424;49.696;6.630;2024-02-26T09:01:00;0.37;;;0.37;;
4819;SDS011;2424;49.696;6.630;2024-02-26T09:06:23;0.43;;;0.43;;
4819;SDS011;2424;49.696;6.630;2024-02-26T09:11:45;0.50;;;0.50;;
4819;SDS011;2424;49.696;6.630;2024-02-26T09:17:07;1.23;;;0.43;;
4819;SDS011;2424;49.696;6.630;2024-02-26T09:22:30;0.30;;;0.30;;
4819;SDS011;2424;49.696;6.630;2024-02-26T09:27:52;0.37;;;0.37;;
4819;SDS011;2424;49.696;6.630;2024-02-26T09:33:14;0.30;;;0.30;;
4819;SDS011;2424;49.696;6.630;2024-02-26T09:38:37;0.60;;;0.60;;
4819;SDS011;2424;49.696;6.630;2024-02-26T09:44:00;0.30;;;0.30;;
4819;SDS011;2424;49.696;6.630;2024-02-26T09:49:25;0.40;;;0.40;;
4819;SDS011;2424;49.696;6.630;2024-02-26T09:54:48;0.40;;;0.40;;
4819;SDS011;2424;49.696;6.630;2024-02-26T10:00:11;2.63;;;0.90;;
4819;SDS011;2424;49.696;6.630;2024-02-26T10:05:38;0.80;;;0.70;;
4819;SDS011;2424;49.696;6.630;2024-02-26T10:11:02;0.80;;;0.80;;
4819;SDS011;2424;49.696;6.630;2024-02-26T10:16:26;0.70;;;0.60;;
4819;SDS011;2424;49.696;6.630;2024-02-26T10:21:48;0.63;;;0.47;;
4819;SDS011;2424;49.696;6.630;2024-02-26T10:27:12;0.40;;;0.40;;
4819;SDS011;2424;49.696;6.630;2024-02-26T10:32:34;0.43;;;0.43;;
4819;SDS011;2424;49.696;6.630;2024-02-26T10:37:57;0.40;;;0.40;;
4819;SDS011;2424;49.696;6.630;2024-02-26T10:43:20;0.47;;;0.47;;
4819;SDS011;2424;49.696;6.630;2024-02-26T10:48:42;0.40;;;0.40;;
4819;SDS011;2424;49.696;6.630;2024-02-26T10:54:12;0.30;;;0.30;;
4819;SDS011;2424;49.696;6.630;2024-02-26T10:59:38;0.40;;;0.40;;
4819;SDS011;2424;49.696;6.630;2024-02-26T11:05:02;0.50;;;0.30;;
4819;SDS011;2424;49.696;6.630;2024-02-26T11:10:25;0.30;;;0.30;;
4819;SDS011;2424;49.696;6.630;2024-02-26T11:15:52;0.77;;;0.60;;
4819;SDS011;2424;49.696;6.630;2024-02-26T11:21:17;0.30;;;0.20;;
4819;SDS011;2424;49.696;6.630;2024-02-26T11:26:48;0.37;;;0.37;;
4819;SDS011;2424;49.696;6.630;2024-02-26T11:32:20;0.40;;;0.40;;
4819;SDS011;2424;49.696;6.630;2024-02-26T11:37:50;0.70;;;0.70;;
4819;SDS011;2424;49.696;6.630;2024-02-26T11:43:13;0.30;;;0.30;;
4819;SDS011;2424;49.696;6.630;2024-02-26T11:48:37;0.37;;;0.37;;
4819;SDS011;2424;49.696;6.630;2024-02-26T11:53:59;0.53;;;0.53;;
4819;SDS011;2424;49.696;6.630;2024-02-26T11:59:37;0.60;;;0.60;;
4819;SDS011;2424;49.696;6.630;2024-02-26T12:05:04;0.33;;;0.33;;
4819;SDS011;2424;49.696;6.630;2024-02-26T12:10:28;0.30;;;0.30;;
4819;SDS011;2424;49.696;6.630;2024-02-26T12:15:56;0.40;;;0.40;;
4819;SDS011;2424;49.696;6.630;2024-02-26T12:21:20;0.43;;;0.30;;
4819;SDS011;2424;49.696;6.630;2024-02-26T12:26:42;0.43;;;0.43;;
4819;SDS011;2424;49.696;6.630;2024-02-26T12:32:04;0.30;;;0.20;;
4819;SDS011;2424;49.696;6.630;2024-02-26T12:37:28;0.20;;;0.20;;
4819;SDS011;2424;49.696;6.630;2024-02-26T12:42:50;0.40;;;0.40;;
4819;SDS011;2424;49.696;6.630;2024-02-26T12:48:13;0.30;;;0.20;;
4819;SDS011;2424;49.696;6.630;2024-02-26T12:53:37;0.33;;;0.33;;
4819;SDS011;2424;49.696;6.630;2024-02-26T12:58:59;0.40;;;0.40;;
4819;SDS011;2424;49.696;6.630;2024-02-26T13:04:23;0.40;;;0.40;;
4819;SDS011;2424;49.696;6.630;2024-02-26T13:09:47;0.50;;;0.30;;
4819;SDS011;2424;49.696;6.630;2024-02-26T13:15:13;0.60;;;0.60;;
4819;SDS011;2424;49.696;6.630;2024-02-26T13:20:36;0.30;;;0.30;;
4819;SDS011;2424;49.696;6.630;2024-02-26T13:26:01;0.30;;;0.30;;
4819;SDS011;2424;49.696;6.630;2024-02-26T13:31:23;0.30;;;0.23;;
4819;SDS011;2424;49.696;6.630;2024-02-26T13:36:45;0.60;;;0.23;;
4819;SDS011;2424;49.696;6.630;2024-02-26T13:42:09;0.40;;;0.40;;
4819;SDS011;2424;49.696;6.630;2024-02-26T13:47:31;0.30;;;0.30;;
4819;SDS011;2424;49.696;6.630;2024-02-26T13:52:53;0.30;;;0.30;;
4819;SDS011;2424;49.696;6.630;2024-02-26T13:58:17;0.30;;;0.23;;
4819;SDS011;2424;49.696;6.630;2024-02-26T14:03:43;0.30;;;0.30;;
4819;SDS011;2424;49.696;6.630;2024-02-26T14:09:05;0.30;;;0.30;;
4819;SDS011;2424;49.696;6.630;2024-02-26T14:14:28;0.30;;;0.30;;
4819;SDS011;2424;49.696;6.630;2024-02-26T14:19:52;1.23;;;0.70;;
4819;SDS011;2424;49.696;6.630;2024-02-26T14:25:14;0.70;;;0.50;;
4819;SDS011;2424;49.696;6.630;2024-02-26T14:30:38;0.30;;;0.20;;
4819;SDS011;2424;49.696;6.630;2024-02-26T14:36:00;0.30;;;0.20;;
4819;SDS011;2424;49.696;6.630;2024-02-26T14:41:22;2.53;;;0.20;;
4819;SDS011;2424;49.696;6.630;2024-02-26T14:46:45;0.30;;;0.30;;
4819;SDS011;2424;49.696;6.630;2024-02-26T14:52:07;0.53;;;0.30;;
4819;SDS011;2424;49.696;6.630;2024-02-26T14:57:29;0.40;;;0.40;;
4819;SDS011;2424;49.696;6.630;2024-02-26T15:02:52;0.30;;;0.20;;
4819;SDS011;2424;49.696;6.630;2024-02-26T15:08:15;0.20;;;0.20;;
4819;SDS011;2424;49.696;6.630;2024-02-26T15:13:37;0.20;;;0.20;;
4819;SDS011;2424;49.696;6.630;2024-02-26T15:19:01;0.30;;;0.20;;
4819;SDS011;2424;49.696;6.630;2024-02-26T15:24:23;0.33;;;0.33;;
4819;SDS011;2424;49.696;6.630;2024-02-26T15:29:45;0.40;;;0.40;;
4819;SDS011;2424;49.696;6.630;2024-02-26T15:35:09;1.07;;;0.40;;
4819;SDS011;2424;49.696;6.630;2024-02-26T15:40:31;0.30;;;0.30;;
4819;SDS011;2424;49.696;6.630;2024-02-26T15:45:53;0.27;;;0.23;;
4819;SDS011;2424;49.696;6.630;2024-02-26T15:51:20;0.70;;;0.47;;
4819;SDS011;2424;49.696;6.630;2024-02-26T15:56:44;0.60;;;0.60;;
4819;SDS011;2424;49.696;6.630;2024-02-26T16:02:06;0.30;;;0.30;;
4819;SDS011;2424;49.696;6.630;2024-02-26T16:07:39;0.30;;;0.23;;
4819;SDS011;2424;49.696;6.630;2024-02-26T16:13:06;0.30;;;0.30;;
4819;SDS011;2424;49.696;6.630;2024-02-26T16:18:29;0.30;;;0.30;;
4819;SDS011;2424;49.696;6.630;2024-02-26T16:23:53;0.30;;;0.30;;
4819;SDS011;2424;49.696;6.630;2024-02-26T16:29:15;0.43;;;0.43;;
4819;SDS011;2424;49.696;6.630;2024-02-26T16:34:37;0.30;;;0.30;;
4819;SDS011;2424;49.696;6.630;2024-02-26T16:40:01;0.60;;;0.60;;
4819;SDS011;2424;49.696;6.630;2024-02-26T16:45:25;0.60;;;0.60;;
4819;SDS011;2424;49.696;6.630;2024-02-26T16:50:48;0.47;;;0.47;;
4819;SDS011;2424;49.696;6.630;2024-02-26T16:56:11;0.40;;;0.40;;
4819;SDS011;2424;49.696;6.630;2024-02-26T17:01:34;0.60;;;0.60;;
4819;SDS011;2424;49.696;6.630;2024-02-26T17:06:56;0.40;;;0.40;;
4819;SDS011;2424;49.696;6.630;2024-02-26T17:12:19;1.53;;;0.47;;
4819;SDS011;2424;49.696;6.630;2024-02-26T17:17:42;0.40;;;0.40;;
4819;SDS011;2424;49.696;6.630;2024-02-26T17:23:04;0.40;;;0.33;;
4819;SDS011;2424;49.696;6.630;2024-02-26T17:28:27;0.50;;;0.50;;
4819;SDS011;2424;49.696;6.630;2024-02-26T17:33:49;0.60;;;0.60;;
4819;SDS011;2424;49.696;6.630;2024-02-26T17:39:11;0.70;;;0.60;;
4819;SDS011;2424;49.696;6.630;2024-02-26T17:44:35;0.43;;;0.43;;
4819;SDS011;2424;49.696;6.630;2024-02-26T17:49:58;0.60;;;0.60;;
4819;SDS011;2424;49.696;6.630;2024-02-26T17:55:19;0.60;;;0.60;;
4819;SDS011;2424;49.696;6.630;2024-02-26T18:00:43;0.30;;;0.20;;
4819;SDS011;2424;49.696;6.630;2024-02-26T18:06:06;0.40;;;0.40;;
4819;SDS011;2424;49.696;6.630;2024-02-26T18:11:28;0.20;;;0.10;;
4819;SDS011;2424;49.696;6.630;2024-02-26T18:16:51;0.80;;;0.80;;
4819;SDS011;2424;49.696;6.630;2024-02-26T18:22:13;0.97;;;0.97;;
4819;SDS011;2424;49.696;6.630;2024-02-26T18:27:35;1.40;;;1.07;;
4819;SDS011;2424;49.696;6.630;2024-02-26T18:32:59;1.00;;;1.00;;
4819;SDS011;2424;49.696;6.630;2024-02-26T18:38:21;0.90;;;0.90;;
4819;SDS011;2424;49.696;6.630;2024-02-26T18:43:43;0.80;;;0.80;;
4819;SDS011;2424;49.696;6.630;2024-02-26T18:49:06;0.40;;;0.40;;
4819;SDS011;2424;49.696;6.630;2024-02-26T18:54:28;0.97;;;0.97;;
4819;SDS011;2424;49.696;6.630;2024-02-26T18:59:50;1.80;;;1.70;;
4819;SDS011;2424;49.696;6.630;2024-02-26T19:05:14;3.67;;;1.80;;
4819;SDS011;2424;49.696;6.630;2024-02-26T19:10:37;1.63;;;1.53;;
4819;SDS011;2424;49.696;6.630;2024-02-26T19:15:59;1.40;;;1.40;;
4819;SDS011;2424;49.696;6.630;2024-02-26T19:21:22;1.80;;;1.70;;
4819;SDS011;2424;49.696;6.630;2024-02-26T19:26:44;0.87;;;0.87;;
4819;SDS011;2424;49.696;6.630;2024-02-26T19:32:06;1.97;;;1.73;;
4819;SDS011;2424;49.696;6.630;2024-02-26T19:37:33;1.50;;;1.50;;
4819;SDS011;2424;49.696;6.630;2024-02-26T19:42:55;2.47;;;2.00;;
4819;SDS011;2424;49.696;6.630;2024-02-26T19:48:17;1.90;;;1.80;;
4819;SDS011;2424;49.696;6.630;2024-02-26T19:53:40;2.93;;;2.50;;
4819;SDS011;2424;49.696;6.630;2024-02-26T19:59:02;2.17;;;1.50;;
4819;SDS011;2424;49.696;6.630;2024-02-26T20:04:24;2.30;;;1.47;;
4819;SDS011;2424;49.696;6.630;2024-02-26T20:09:47;3.07;;;2.80;;
4819;SDS011;2424;49.696;6.630;2024-02-26T20:15:09;1.77;;;1.67;;
4819;SDS011;2424;49.696;6.630;2024-02-26T20:20:31;2.67;;;2.47;;
4819;SDS011;2424;49.696;6.630;2024-02-26T20:25:54;1.83;;;1.73;;
4819;SDS011;2424;49.696;6.630;2024-02-26T20:31:18;1.80;;;1.70;;
4819;SDS011;2424;49.696;6.630;2024-02-26T20:36:40;2.30;;;1.67;;
4819;SDS011;2424;49.696;6.630;2024-02-26T20:42:04;1.90;;;1.73;;
4819;SDS011;2424;49.696;6.630;2024-02-26T20:47:27;1.57;;;1.47;;
4819;SDS011;2424;49.696;6.630;2024-02-26T20:52:49;1.90;;;1.80;;
4819;SDS011;2424;49.696;6.630;2024-02-26T20:58:13;1.33;;;1.33;;
4819;SDS011;2424;49.696;6.630;2024-02-26T21:03:35;1.90;;;1.80;;
4819;SDS011;2424;49.696;6.630;2024-02-26T21:08:57;2.97;;;1.90;;
4819;SDS011;2424;49.696;6.630;2024-02-26T21:14:20;1.80;;;1.70;;
4819;SDS011;2424;49.696;6.630;2024-02-26T21:19:42;1.63;;;1.60;;
4819;SDS011;2424;49.696;6.630;2024-02-26T21:25:04;0.70;;;0.70;;
4819;SDS011;2424;49.696;6.630;2024-02-26T21:30:28;1.87;;;1.77;;
4819;SDS011;2424;49.696;6.630;2024-02-26T21:35:50;1.70;;;1.60;;
4819;SDS011;2424;49.696;6.630;2024-02-26T21:41:13;2.07;;;1.90;;
4819;SDS011;2424;49.696;6.630;2024-02-26T21:46:37;1.67;;;1.57;;
4819;SDS011;2424;49.696;6.630;2024-02-26T21:52:04;1.53;;;1.53;;
4819;SDS011;2424;49.696;6.630;2024-02-26T21:57:26;1.80;;;1.70;;
4819;SDS011;2424;49.696;6.630;2024-02-26T22:02:49;1.73;;;1.60;;
4819;SDS011;2424;49.696;6.630;2024-02-26T22:08:11;0.73;;;0.73;;
4819;SDS011;2424;49.696;6.630;2024-02-26T22:13:33;1.27;;;1.27;;
4819;SDS011;2424;49.696;6.630;2024-02-26T22:18:57;1.10;;;1.10;;
4819;SDS011;2424;49.696;6.630;2024-02-26T22:24:20;1.63;;;1.63;;
4819;SDS011;2424;49.696;6.630;2024-02-26T22:29:42;2.30;;;1.57;;
4819;SDS011;2424;49.696;6.630;2024-02-26T22:35:06;1.77;;;1.67;;
4819;SDS011;2424;49.696;6.630;2024-02-26T22:40:28;1.70;;;1.60;;
4819;SDS011;2424;49.696;6.630;2024-02-26T22:45:50;1.60;;;1.47;;
4819;SDS011;2424;49.696;6.630;2024-02-26T22:51:14;1.67;;;1.40;;
4819;SDS011;2424;49.696;6.630;2024-02-26T22:56:36;1.40;;;1.30;;
4819;SDS011;2424;49.696;6.630;2024-02-26T23:01:58;1.53;;;1.43;;
4819;SDS011;2424;49.696;6.630;2024-02-26T23:07:21;1.37;;;1.37;;
4819;SDS011;2424;49.696;6.630;2024-02-26T23:12:43;4.40;;;2.50;;
4819;SDS011;2424;49.696;6.630;2024-02-26T23:18:05;1.73;;;1.63;;
4819;SDS011;2424;49.696;6.630;2024-02-26T23:23:28;1.10;;;1.10;;
4819;SDS011;2424;49.696;6.630;2024-02-26T23:28:50;1.30;;;1.20;;
4819;SDS011;2424;49.696;6.630;2024-02-26T23:34:12;1.70;;;1.60;;
4819;SDS011;2424;49.696;6.630;2024-02-26T23:39:35;1.43;;;1.30;;
4819;SDS011;2424;49.696;6.630;2024-02-26T23:44:57;1.13;;;1.13;;
4819;SDS011;2424;49.696;6.630;2024-02-26T23:50:19;1.57;;;1.30;;
4819;SDS011;2424;49.696;6.630;2024-02-26T23:55:45;1.23;;;1.20;;
